Tiempo atmosférico en la estación meteorológica de Bunyola, Sierra de Alfabia, Illes Balears (1030 m.)



Fecha
DESCASC
Temp. máxima en grados centígrados (hora)
DESCASC
Temp. mínima en grados centígrados (hora)
DESCASC
Temp. media en grados centígrados
DESCASC
Racha de viento máxima en m/sg (hora)
DESCASC
Velocidad máxima media en intervalos de 10 minutos(hora)
DESCASC
Precipitaciones diarias en mm
DESCASC
Precipitaciones de 00:00 a 06:00 en mm
DESCASC
Precipitaciones de 06:00 a 12:00 en mm
DESCASC
Precipitaciones de 12:00 a 18:00 en mm
DESCASC
Precipitaciones de 18:00 a 24:00 en mm
DESCASC

Gráficas

Temp. máximas Temp. mínimas Temp. medias Precipitaciones Rachas de viento máximas Velocidades máximas media en intervalos de 10 minutos

Datos horarios

Fecha y hora oficial Temperatura (ºC) Velocidad del viento (km/h) Dirección del viento Racha (km/h) Dirección de racha Precipitación (mm) Presión (hPa) Tendencia (hPa) Humedad (%)
2018-01-22 23:00:00 8.8 66 Noroeste 82 Noroeste 0 -- -- 47
2018-01-22 22:00:00 8.7 59 Noroeste 88 Norte 0 -- -- 45
2018-01-22 21:00:00 9.6 58 Norte 76 Norte 0 -- -- 41
2018-01-22 20:00:00 9.4 51 Noroeste 62 Noroeste 0 -- -- 43
2018-01-22 19:00:00 9.8 37 Noroeste 51 Noroeste 0 -- -- 42
2018-01-22 18:00:00 10.2 34 Noroeste 46 Noroeste 0 -- -- 42
2018-01-22 17:00:00 10.9 26 Noroeste 44 Noroeste 0 -- -- 40
2018-01-22 16:00:00 11.4 24 Noroeste 39 Noroeste 0 -- -- 41
2018-01-22 15:00:00 11.9 24 Noroeste 47 Noroeste 0 -- -- 40
2018-01-22 14:00:00 12.2 27 Noroeste 44 Noroeste 0 -- -- 45
2018-01-22 13:00:00 9.4 33 Noroeste 48 Norte 0 -- -- 59
2018-01-22 12:00:00 7.9 46 Norte 75 Norte 0 -- -- 66
2018-01-22 11:00:00 7.6 65 Norte 98 Norte 0 -- -- 71
2018-01-22 10:00:00 7.3 64 Noroeste 82 Norte 0 -- -- 75
2018-01-22 09:00:00 6.8 62 Noroeste 98 Noroeste 0 -- -- 77
2018-01-22 08:00:00 6.6 78 Noroeste 106 Noroeste 0 -- -- 78
2018-01-22 07:00:00 6.7 78 Noroeste 95 Noroeste 0 -- -- 77
2018-01-22 06:00:00 6.3 73 Noroeste 95 Noroeste 0 -- -- 86
2018-01-22 05:00:00 6.5 77 Noroeste 108 Norte 0 -- -- 83
2018-01-22 04:00:00 7.1 70 Noroeste 95 Norte 0 -- -- 77
2018-01-22 03:00:00 7.3 77 Noroeste 98 Norte 0 -- -- 79
2018-01-22 02:00:00 7.5 69 Noroeste 96 Noroeste 0 -- -- 73
2018-01-22 01:00:00 7.5 59 Noroeste 93 Noroeste 0 -- -- 77
2018-01-22 00:00:00 7.6 61 Noroeste 88 Noroeste 0 -- -- 74
2018-01-21 23:00:00 8.6 64 Noroeste 84 Noroeste 0 -- -- 69
2018-01-21 22:00:00 9.1 50 Noroeste 67 Norte 0 -- -- 66
2018-01-21 21:00:00 9.2 48 Norte 69 Norte 0 -- -- 69
2018-01-21 20:00:00 9 57 Noroeste 73 Noroeste 0 -- -- 70
2018-01-21 19:00:00 8.6 42 Noroeste 66 Noroeste 0 -- -- 70
2018-01-21 18:00:00 8.7 50 Noroeste 67 Noroeste 0 -- -- 68
2018-01-21 17:00:00 8.1 53 Noroeste 62 Noroeste 0 -- -- 73
2018-01-21 16:00:00 8.2 36 Noroeste 56 Norte 0 -- -- 72
2018-01-21 15:00:00 7.3 47 Noroeste 59 Noroeste 0 -- -- 81
2018-01-21 14:00:00 8 35 Noroeste 58 Noroeste 0 -- -- 80
2018-01-21 13:00:00 7.5 49 Noroeste 61 Norte 0 -- -- 78
2018-01-21 12:00:00 7.1 48 Noroeste 61 Noroeste 0 -- -- 85
2018-01-21 11:00:00 7.1 43 Noroeste 60 Norte 0 -- -- 88
2018-01-21 10:00:00 6.8 40 Noroeste 69 Noroeste 0 -- -- 88
2018-01-21 09:00:00 6.6 60 Noroeste 85 Noroeste 0 -- -- 88
2018-01-21 08:00:00 6.7 59 Noroeste 84 Noroeste 0 -- -- 86
2018-01-21 07:00:00 6.7 64 Noroeste 97 Noroeste 0 -- -- 86
2018-01-21 06:00:00 6.9 54 Noroeste 89 Noroeste 0 -- -- 84
2018-01-21 05:00:00 7.1 58 Noroeste 84 Noroeste 0 -- -- 81
2018-01-21 04:00:00 7.2 45 Noroeste 82 Noroeste 0 -- -- 78
2018-01-21 03:00:00 7.3 51 Noroeste 81 Noroeste 0 -- -- 74
2018-01-21 02:00:00 7.4 56 Noroeste 85 Noroeste 0 -- -- 68
2018-01-21 01:00:00 7.8 59 Noroeste 90 Noroeste 0 -- -- 61
2018-01-21 00:00:00 8 57 Noroeste 107 Norte 0 -- -- 60
2018-01-20 23:00:00 8.4 54 Noroeste 88 Noroeste 0 -- -- 53
2018-01-20 22:00:00 8.8 50 Noroeste 79 Noroeste 0 -- -- 42
2018-01-20 21:00:00 8.9 38 Noroeste 63 Norte 0 -- -- 36
2018-01-20 20:00:00 8.2 36 Noroeste 68 Noroeste 0 -- -- 34
2018-01-20 19:00:00 7.4 32 Noroeste 59 Noroeste 0 -- -- 33
2018-01-20 18:00:00 6.4 28 Noroeste 57 Norte 0 -- -- 36
2018-01-20 17:00:00 6.8 27 Noroeste 52 Norte 0 -- -- 37
2018-01-20 16:00:00 7.5 30 Noroeste 50 Noroeste 0 -- -- 39
2018-01-20 15:00:00 7.6 24 Noroeste 52 Oeste 0 -- -- 42
2018-01-20 14:00:00 6.6 30 Noroeste 55 Norte 0 -- -- 55
2018-01-20 13:00:00 6.1 31 Noroeste 55 Noroeste 0 -- -- 57
2018-01-20 12:00:00 5.2 17 Noroeste 31 Noroeste 0 -- -- 88
2018-01-20 11:00:00 4.8 15 Noroeste 27 Noroeste 0 -- -- 88
2018-01-20 10:00:00 5.3 10 Noroeste 18 Noroeste 0 -- -- 88
2018-01-20 09:00:00 4.3 3 Oeste 21 Noroeste 0 -- -- 88
2018-01-20 08:00:00 4.6 17 Noroeste 30 Noroeste 0 -- -- 88
2018-01-20 07:00:00 5.1 17 Noroeste 32 Norte 0 -- -- 88
2018-01-20 06:00:00 4.7 10 Norte 36 Noroeste 0 -- -- 88
2018-01-20 05:00:00 5.2 23 Norte 38 Noroeste 0 -- -- 88
2018-01-20 04:00:00 5.4 20 Noroeste 33 Noroeste 0 -- -- 88
2018-01-20 03:00:00 5.3 22 Noroeste 30 Norte 0 -- -- 88
2018-01-20 02:00:00 4.8 17 Noroeste 26 Noroeste 0 -- -- 86
2018-01-20 01:00:00 4.6 13 Noroeste 22 Noroeste 0 -- -- 80
2018-01-20 00:00:00 4.7 14 Noroeste 28 Noroeste 0 -- -- 80
2018-01-19 23:00:00 4.8 20 Noroeste 32 Noroeste 0 -- -- 84
2018-01-19 22:00:00 4.6 24 Noroeste 42 Norte 0 -- -- 83
2018-01-19 21:00:00 4.3 34 Noroeste 41 Norte 0 -- -- 82
2018-01-19 20:00:00 4.3 26 Noroeste 35 Noroeste 0 -- -- 84
2018-01-19 19:00:00 4.5 28 Noroeste 38 Noroeste 0 -- -- 82
2018-01-19 18:00:00 4.6 24 Noroeste 32 Noroeste 0 -- -- 81
2018-01-19 17:00:00 5.1 21 Noroeste 32 Noroeste 0 -- -- 81
2018-01-19 16:00:00 5.5 17 Noroeste 37 Norte 0 -- -- 78
2018-01-19 15:00:00 5 25 Norte 45 Noroeste 0 -- -- 81
2018-01-19 14:00:00 5.3 32 Noroeste 44 Noroeste 0 -- -- 73
2018-01-19 13:00:00 6.1 17 Noroeste 36 Noroeste 0 -- -- 77
2018-01-19 12:00:00 5.9 13 Noroeste 27 Noroeste 0 -- -- 86
2018-01-19 11:00:00 5.2 21 Noroeste 34 Norte 0 -- -- 88
2018-01-19 10:00:00 4.3 18 Noroeste 31 Norte 0 -- -- 87
2018-01-19 09:00:00 4 22 Norte 27 Norte 0 -- -- 86
2018-01-19 08:00:00 4.7 14 Noroeste 24 Noroeste 0 -- -- 52
2018-01-19 07:00:00 5.4 14 Noroeste 25 Norte 0 -- -- 47
2018-01-19 06:00:00 5.7 7 Norte 12 Norte 0 -- -- 50
2018-01-19 05:00:00 5.1 2 Este 13 Nordeste 0 -- -- 57
2018-01-19 04:00:00 5.4 11 Nordeste 25 Norte 0 -- -- 50
2018-01-19 03:00:00 4.9 17 Norte 27 Norte 0 -- -- 66
2018-01-19 02:00:00 5.3 18 Norte 28 Noroeste 0 -- -- 56
2018-01-19 01:00:00 5.3 22 Norte 37 Norte 0 -- -- 53
2018-01-19 00:00:00 4.4 21 Noroeste 28 Noroeste 0 -- -- 73
2018-01-18 23:00:00 3.2 16 Noroeste 24 Noroeste 0 -- -- 88
2018-01-18 22:00:00 4.2 8 Sudoeste 20 Sudoeste 0 -- -- 88
2018-01-18 21:00:00 4.4 10 Sudoeste 19 Sudoeste 0 -- -- 88
2018-01-18 20:00:00 4.5 11 Sur 17 Sudoeste 0 -- -- 88
2018-01-18 19:00:00 4.7 10 Sudoeste 19 Sudoeste 0 -- -- 88
2018-01-18 18:00:00 4.3 9 Noroeste 21 Sur 0 -- -- 88
2018-01-18 17:00:00 5.2 12 Sur 21 Sur 0 -- -- 88
2018-01-18 16:00:00 5.4 5 Sur 19 Sur 0 -- -- 88
2018-01-18 15:00:00 5.6 13 Sur 22 Sudoeste 0 -- -- 88
2018-01-18 14:00:00 5.5 10 Sudoeste 20 Sur 0 -- -- 88
2018-01-18 13:00:00 5.3 8 Sur 24 Sudoeste 0 -- -- 88
2018-01-18 12:00:00 5.6 11 Sur 19 Sudoeste 0 -- -- 88
2018-01-18 11:00:00 5 12 Sur 19 Sur 0 -- -- 88
2018-01-18 10:00:00 4.4 11 Sudoeste 17 Sur 0 -- -- 88
2018-01-18 09:00:00 4 10 Sur 19 Sur 0 -- -- 88
2018-01-18 08:00:00 4.3 12 Sur 19 Sudoeste 0 -- -- 88
2018-01-18 07:00:00 4.2 13 Sur 29 Sur 0.1 -- -- 88
2018-01-18 06:00:00 4.5 17 Sur 27 Sur 0 -- -- 88
2018-01-18 05:00:00 4.4 17 Sur 26 Sur 0.1 -- -- 88
2018-01-18 04:00:00 4.2 17 Sur 24 Sur 0 -- -- 88
2018-01-18 03:00:00 4.3 17 Sur 25 Sur 0 -- -- 88
2018-01-18 02:00:00 4.3 22 Sur 28 Sur 0 -- -- 88
2018-01-18 01:00:00 4.3 20 Sur 30 Sur 0 -- -- 88
2018-01-18 00:00:00 4.3 24 Sudeste 31 Sudeste 0 -- -- 88
2018-01-17 23:00:00 4.4 19 Sudeste 26 Sudeste 0 -- -- 88
2018-01-17 22:00:00 4.5 21 Sur 30 Sur 0 -- -- 88
2018-01-17 21:00:00 4.6 22 Sur 32 Sudeste 0 -- -- 88
2018-01-17 20:00:00 4 20 Sudeste 25 Sudeste 0 -- -- 78
2018-01-17 19:00:00 4.6 5 Norte 23 Noroeste 0 -- -- 81
2018-01-17 18:00:00 4.7 17 Noroeste 49 Noroeste 0 -- -- 78
2018-01-17 17:00:00 5.5 36 Noroeste 60 Noroeste 0 -- -- 71
2018-01-17 16:00:00 6.2 49 Noroeste 66 Norte 0 -- -- 66
2018-01-17 15:00:00 6.9 54 Noroeste 77 Norte 0 -- -- 61
2018-01-17 14:00:00 7.3 51 Noroeste 98 Norte 0 -- -- 63
2018-01-17 13:00:00 7.2 58 Noroeste 113 Norte 0 -- -- 64
2018-01-17 12:00:00 7.4 71 Noroeste 111 Noroeste 0 -- -- 63
2018-01-17 11:00:00 7.3 63 Noroeste 116 Norte 0 -- -- 61
2018-01-17 10:00:00 7.8 66 Noroeste 108 Noroeste 0 -- -- 60
2018-01-17 09:00:00 7.4 65 Noroeste 94 Norte 0 -- -- 65
2018-01-17 08:00:00 7.3 66 Noroeste 104 Noroeste 0 -- -- 63
2018-01-17 07:00:00 7.6 66 Noroeste 106 Noroeste 0 -- -- 57
2018-01-17 06:00:00 7.5 64 Noroeste 101 Noroeste 0 -- -- 57
2018-01-17 05:00:00 8.2 59 Noroeste 89 Noroeste 0 -- -- 55
2018-01-17 04:00:00 8.2 54 Noroeste 93 Noroeste 0 -- -- 57
2018-01-17 03:00:00 8.1 53 Noroeste 84 Noroeste 0 -- -- 60
2018-01-17 02:00:00 8.2 45 Noroeste 67 Norte 0 -- -- 56
2018-01-17 01:00:00 8.8 40 Noroeste 61 Noroeste 0 -- -- 53
2018-01-17 00:00:00 9.6 36 Noroeste 70 Noroeste 0 -- -- 48
2018-01-16 23:00:00 9.6 41 Noroeste 68 Noroeste 0 -- -- 47
2018-01-16 22:00:00 9 35 Noroeste 72 Noroeste 0 -- -- 48
2018-01-16 21:00:00 9 41 Noroeste 73 Noroeste 0 -- -- 48
2018-01-16 20:00:00 8.8 39 Noroeste 66 Noroeste 0 -- -- 47
2018-01-16 19:00:00 8.1 32 Noroeste 64 Noroeste 0 -- -- 47
2018-01-16 18:00:00 8.2 28 Noroeste 60 Noroeste 0 -- -- 47
2018-01-16 17:00:00 9.2 15 Noroeste 50 Noroeste 0 -- -- 43
2018-01-16 16:00:00 9.6 19 Noroeste 46 Noroeste 0 -- -- 40
2018-01-16 15:00:00 10 22 Noroeste 44 Oeste 0 -- -- 38
2018-01-16 14:00:00 10.8 23 Noroeste 47 Oeste 0 -- -- 36
2018-01-16 13:00:00 10.4 24 Noroeste 51 Noroeste 0 -- -- 34
2018-01-16 12:00:00 10.1 24 Noroeste 48 Norte 0 -- -- 34
2018-01-16 11:00:00 8.7 22 Noroeste 47 Oeste 0 -- -- 35
2018-01-16 10:00:00 7 17 Noroeste 45 Oeste 0 -- -- 38
2018-01-16 09:00:00 7.3 19 Noroeste 48 Oeste 0 -- -- 29
2018-01-16 08:00:00 6.6 24 Oeste 52 Oeste 0 -- -- 33
2018-01-16 07:00:00 5.8 31 Oeste 51 Oeste 0 -- -- 40
2018-01-16 06:00:00 4.5 18 Oeste 47 Sudoeste 0 -- -- 56
2018-01-16 05:00:00 4.9 31 Sudoeste 53 Oeste 0 -- -- 52
2018-01-16 04:00:00 5 34 Oeste 55 Oeste 0 -- -- 46
2018-01-16 03:00:00 4.5 34 Oeste 53 Oeste 0 -- -- 48
2018-01-16 02:00:00 4.1 26 Oeste 46 Sudoeste 0 -- -- 51
2018-01-16 01:00:00 3.8 24 Oeste 45 Oeste 0 -- -- 48
2018-01-16 00:00:00 3.3 15 Oeste 39 Oeste 0 -- -- 54
2018-01-15 23:00:00 3.1 16 Oeste 40 Oeste 0 -- -- 55
2018-01-15 22:00:00 2.6 16 Noroeste 36 Noroeste 0 -- -- 55
2018-01-15 21:00:00 2 15 Noroeste 27 Noroeste 0 -- -- 60
2018-01-15 20:00:00 2.7 16 Noroeste 24 Noroeste 0 -- -- 50
2018-01-15 19:00:00 3.3 15 Oeste 33 Noroeste 0 -- -- 49
2018-01-15 18:00:00 2.8 22 Noroeste 35 Norte 0 -- -- 61
2018-01-15 17:00:00 3.5 17 Noroeste 25 Noroeste 0 -- -- 62
2018-01-15 16:00:00 3.6 18 Noroeste 26 Norte 0 -- -- 64
2018-01-15 15:00:00 3.4 19 Noroeste 31 Noroeste 0 -- -- 81
2018-01-15 14:00:00 3.2 27 Noroeste 33 Noroeste 0 -- -- 84
2018-01-15 13:00:00 3.2 22 Norte 28 Norte 0 -- -- 81
2018-01-15 12:00:00 2.9 8 Norte 13 Norte 0 -- -- 81
2018-01-15 11:00:00 3.3 3 Noroeste 22 Norte 0 -- -- 82
2018-01-15 10:00:00 2.3 17 Norte 19 Norte 0 -- -- 83
2018-01-15 09:00:00 1.9 8 Norte 12 Norte 0 -- -- 85
2018-01-15 08:00:00 1.5 7 Norte 12 Noroeste 0 -- -- 83
2018-01-15 07:00:00 1.5 9 Noroeste 15 Norte 0 -- -- 74
2018-01-15 06:00:00 1.4 11 Noroeste 27 Norte 0 -- -- 88
2018-01-15 05:00:00 1.7 20 Norte 34 Norte 0 -- -- 88
2018-01-15 04:00:00 1.8 22 Norte 35 Norte 0 -- -- 88
2018-01-15 03:00:00 2 19 Noroeste 33 Norte 0 -- -- 88
2018-01-15 02:00:00 1.9 27 Noroeste 36 Norte 0 -- -- 88
2018-01-15 01:00:00 2.3 19 Noroeste 34 Norte 0 -- -- 88
2018-01-15 00:00:00 2.5 22 Noroeste 41 Noroeste 0 -- -- 88
2018-01-14 23:00:00 2 33 Noroeste 43 Noroeste 0 -- -- 87
2018-01-14 22:00:00 1.6 27 Noroeste 33 Noroeste 0 -- -- 86
2018-01-14 21:00:00 1.8 24 Noroeste 33 Norte 0 -- -- 84
2018-01-14 20:00:00 1.6 24 Noroeste 33 Norte 0 -- -- 80
2018-01-14 19:00:00 1.6 26 Norte 40 Norte 0 -- -- 79
2018-01-14 18:00:00 1.8 37 Norte 45 Norte 0 -- -- 79
2018-01-14 17:00:00 2.7 27 Noroeste 42 Norte 0 -- -- 79
2018-01-14 16:00:00 2.7 21 Noroeste 51 Noroeste 0 -- -- 86
2018-01-14 15:00:00 3 25 Noroeste 49 Noroeste 0 -- -- 80
2018-01-14 14:00:00 3.1 23 Noroeste 39 Noroeste 0 -- -- 89
2018-01-14 13:00:00 3.2 14 Noroeste 36 Noroeste 0 -- -- 89
2018-01-14 12:00:00 2.6 16 Noroeste 38 Norte 0 -- -- 89
2018-01-14 11:00:00 2.6 23 Noroeste 43 Noroeste 0 -- -- 89
2018-01-14 10:00:00 2.7 30 Noroeste 45 Noroeste 0 -- -- 89
2018-01-14 09:00:00 2.5 27 Noroeste 44 Noroeste 0 -- -- 89
2018-01-14 08:00:00 3.1 24 Noroeste 50 Noroeste 0 -- -- 89
2018-01-14 07:00:00 3 18 Oeste 44 Oeste 0 -- -- 89
2018-01-14 06:00:00 3.1 27 Oeste 53 Oeste 1.1 -- -- 89
2018-01-14 05:00:00 3.6 18 Sudoeste 36 Sudoeste 0 -- -- 89
2018-01-14 04:00:00 3.4 16 Sudoeste 38 Sur 0 -- -- 89
2018-01-14 03:00:00 3 21 Sur 37 Sur 0 -- -- 89
2018-01-14 02:00:00 3.2 25 Sur 45 Sur 0 -- -- 89
2018-01-14 01:00:00 3.3 29 Sur 44 Sur 0 -- -- 89
2018-01-14 00:00:00 3.3 35 Sur 49 Sur 0 -- -- 89
2018-01-13 23:00:00 3.4 28 Sur 44 Sur 0 -- -- 89
2018-01-13 22:00:00 3.6 24 Sur 43 Sur 0 -- -- 89
2018-01-13 21:00:00 3.7 25 Sur 43 Sur 0 -- -- 89
2018-01-13 20:00:00 3.4 24 Sur 42 Sur 0 -- -- 88
2018-01-13 19:00:00 3.1 27 Sur 41 Sur 0 -- -- 85
2018-01-13 18:00:00 3 28 Sur 44 Sur 0 -- -- 86
2018-01-13 17:00:00 3.2 22 Sur 33 Sur 0 -- -- 88
2018-01-13 16:00:00 3.3 16 Sur 30 Sur 0 -- -- 85
2018-01-13 15:00:00 3.6 19 Sur 27 Sur 0 -- -- 73
2018-01-13 14:00:00 4.7 19 Sur 30 Sudeste 0 -- -- 63
2018-01-13 13:00:00 5.2 23 Sur 39 Sudeste 0 -- -- 62
2018-01-13 12:00:00 5.3 18 Sur 31 Sur 0 -- -- 58
2018-01-13 11:00:00 4.1 22 Sur 32 Sur 0 -- -- 58
2018-01-13 10:00:00 3.1 17 Sudeste 23 Sur 0 -- -- 65
2018-01-13 09:00:00 2.2 15 Sudeste 20 Sudeste 0 -- -- 68
2018-01-13 08:00:00 1.6 8 Sur 13 Oeste 0 -- -- 70
2018-01-13 07:00:00 1.4 2 Sudeste 8 Sur 0 -- -- 72
2018-01-13 06:00:00 1.7 6 Norte 12 Este 0 -- -- 63
2018-01-13 05:00:00 1.4 8 Noroeste 17 Noroeste 0 -- -- 74
2018-01-13 04:00:00 1.5 8 Noroeste 16 Noroeste 0 -- -- 71
2018-01-13 03:00:00 1.7 8 Noroeste 18 Noroeste 0 -- -- 64
2018-01-13 02:00:00 1.4 12 Noroeste 20 Noroeste 0 -- -- 83
2018-01-13 01:00:00 1.8 19 Noroeste 32 Noroeste 0 -- -- 84
2018-01-13 00:00:00 1.7 26 Noroeste 36 Noroeste 0 -- -- 85
2018-01-12 23:00:00 1.8 30 Noroeste 40 Noroeste 0 -- -- 83
2018-01-12 22:00:00 1.8 30 Noroeste 41 Noroeste 0 -- -- 82
2018-01-12 21:00:00 1.9 20 Noroeste 33 Noroeste 0 -- -- 82
2018-01-12 20:00:00 2.4 24 Noroeste 46 Noroeste 0 -- -- 87
2018-01-12 19:00:00 2.6 30 Noroeste 45 Noroeste 0 -- -- 87
2018-01-12 18:00:00 2.6 23 Noroeste 55 Norte 0 -- -- 86
2018-01-12 17:00:00 2.7 37 Noroeste 57 Noroeste 0 -- -- 85
2018-01-12 16:00:00 2.4 38 Noroeste 54 Norte 0 -- -- 79
2018-01-12 15:00:00 4.5 19 Noroeste 31 Noroeste 0 -- -- 67
2018-01-12 14:00:00 4.9 12 Noroeste 19 Noroeste 0 -- -- 80
2018-01-12 13:00:00 5.3 0 Calma 8 Sudoeste 0 -- -- 52
2018-01-12 12:00:00 5.8 3 Este 14 Nordeste 0 -- -- 51
2018-01-12 11:00:00 2.9 11 Norte 36 Noroeste 0 -- -- 88
2018-01-12 10:00:00 2.9 22 Noroeste 39 Norte 0 -- -- 88
2018-01-12 09:00:00 2.9 28 Noroeste 41 Norte 0 -- -- 88
2018-01-12 08:00:00 2.6 25 Noroeste 36 Noroeste 0 -- -- 88
2018-01-12 07:00:00 2.6 23 Noroeste 35 Norte 0 -- -- 88
2018-01-12 06:00:00 2.6 30 Norte 37 Norte 0 -- -- 88
2018-01-12 05:00:00 2.4 28 Noroeste 38 Norte 0 -- -- 88
2018-01-12 04:00:00 2.4 27 Norte 54 Norte 0 -- -- 88
2018-01-12 03:00:00 2.5 34 Norte 59 Noroeste 0 -- -- 88
2018-01-12 02:00:00 2.7 28 Noroeste 48 Noroeste 0 -- -- 88
2018-01-12 01:00:00 2.7 30 Noroeste 52 Noroeste 0 -- -- 88
2018-01-12 00:00:00 2.6 31 Noroeste 48 Noroeste 0 -- -- 85
2018-01-11 23:00:00 2.7 31 Noroeste 53 Norte 0 -- -- 80
2018-01-11 22:00:00 2.6 30 Noroeste 52 Noroeste 0 -- -- 73
2018-01-11 21:00:00 2.7 34 Noroeste 57 Norte 0 -- -- 72
2018-01-11 20:00:00 2.5 33 Noroeste 60 Noroeste 0 -- -- 72
2018-01-11 19:00:00 2.4 37 Noroeste 69 Norte 0 -- -- 73
2018-01-11 18:00:00 2 46 Noroeste 73 Noroeste 0 -- -- 79
2018-01-11 17:00:00 1.9 44 Noroeste 78 Noroeste 0 -- -- 75
2018-01-11 16:00:00 1.9 51 Noroeste 87 Noroeste 0 -- -- 71
2018-01-11 15:00:00 1.7 50 Noroeste 89 Noroeste 0 -- -- 73
2018-01-11 14:00:00 1.7 45 Noroeste 80 Norte 0 -- -- 75
2018-01-11 13:00:00 2.3 44 Noroeste 88 Noroeste 0 -- -- 72
2018-01-11 12:00:00 2.6 43 Noroeste 78 Noroeste 0 -- -- 72
2018-01-11 11:00:00 1.9 51 Noroeste 83 Noroeste 0 -- -- 73
2018-01-11 10:00:00 1.8 55 Noroeste 82 Noroeste 0 -- -- 69
2018-01-11 09:00:00 1.6 51 Noroeste 83 Noroeste 0 -- -- 71
2018-01-11 08:00:00 1.4 52 Noroeste 87 Noroeste 0 -- -- 73
2018-01-11 07:00:00 1.7 53 Noroeste 93 Noroeste 0 -- -- 73
2018-01-11 06:00:00 1.8 62 Noroeste 99 Noroeste 0 -- -- 75
2018-01-11 05:00:00 2.6 58 Noroeste 91 Noroeste 0 -- -- 84
2018-01-11 04:00:00 3.2 55 Noroeste 88 Norte 0 -- -- 83
2018-01-11 03:00:00 4 41 Noroeste 80 Noroeste 1 -- -- 87
2018-01-11 02:00:00 4.6 34 Noroeste 67 Noroeste 0 -- -- 81
2018-01-11 01:00:00 4.8 27 Noroeste 87 Oeste 0 -- -- 75
2018-01-11 00:00:00 4.7 23 Oeste 59 Oeste 0 -- -- 82
2018-01-10 23:00:00 5 19 Oeste 38 Oeste 0 -- -- 64
2018-01-10 22:00:00 5.2 16 Oeste 39 Oeste 0 -- -- 57
2018-01-10 21:00:00 4.1 16 Noroeste 41 Noroeste 0 -- -- 63
2018-01-10 20:00:00 3.5 28 Noroeste 46 Noroeste 0 -- -- 74
2018-01-10 19:00:00 3.8 25 Noroeste 40 Norte 0 -- -- 88
2018-01-10 18:00:00 4 26 Noroeste 44 Noroeste 0 -- -- 88
2018-01-10 17:00:00 4.2 23 Noroeste 41 Noroeste 0 -- -- 88
2018-01-10 16:00:00 4.7 21 Noroeste 37 Noroeste 0 -- -- 88
2018-01-10 15:00:00 4.6 14 Noroeste 35 Oeste 0 -- -- 88
2018-01-10 14:00:00 5.1 10 Oeste 37 Oeste 0 -- -- 88
2018-01-10 13:00:00 5.1 14 Oeste 35 Oeste 0 -- -- 88
2018-01-10 12:00:00 4.9 14 Noroeste 36 Oeste 0 -- -- 88
2018-01-10 11:00:00 4.4 18 Oeste 39 Oeste 0 -- -- 88
2018-01-10 10:00:00 4.1 18 Noroeste 41 Noroeste 0 -- -- 88
2018-01-10 09:00:00 3.9 20 Noroeste 44 Oeste 0 -- -- 88
2018-01-10 08:00:00 4.1 15 Oeste 34 Oeste 0 -- -- 88
2018-01-10 07:00:00 4.2 21 Oeste 45 Oeste 0 -- -- 88
2018-01-10 06:00:00 3.7 15 Sudoeste 36 Oeste 0 -- -- 88
2018-01-10 05:00:00 3.7 17 Sudoeste 30 Sudoeste 0 -- -- 88
2018-01-10 04:00:00 3.4 19 Sudoeste 31 Sudoeste 0 -- -- 88
2018-01-10 03:00:00 3.2 23 Sudoeste 40 Sudoeste 0 -- -- 88
2018-01-10 02:00:00 3.3 19 Sudoeste 37 Sudoeste 0 -- -- 88
2018-01-10 01:00:00 3.2 24 Sudoeste 51 Sudoeste 0 -- -- 88
2018-01-10 00:00:00 3.1 27 Sudoeste 44 Sudoeste 0 -- -- 88
2018-01-09 23:00:00 2.9 27 Sudoeste 41 Sudoeste 0 -- -- 87
2018-01-09 22:00:00 3 19 Sur 32 Sudoeste 0 -- -- 88
2018-01-09 21:00:00 3.5 18 Sur 32 Sudoeste 0 -- -- 88
2018-01-09 20:00:00 3.4 21 Sur 36 Sudoeste 0 -- -- 87
2018-01-09 19:00:00 3.2 21 Sudoeste 40 Sudoeste 0 -- -- 85
2018-01-09 18:00:00 3.5 18 Sur 33 Sudoeste 0 -- -- 85
2018-01-09 17:00:00 4.1 17 Sudoeste 32 Sudoeste 0 -- -- 75
2018-01-09 16:00:00 5 18 Sur 37 Sudoeste 0 -- -- 69
2018-01-09 15:00:00 6 17 Sur 31 Sudoeste 0 -- -- 60
2018-01-09 14:00:00 6.1 19 Sudoeste 35 Sudoeste 0 -- -- 62
2018-01-09 13:00:00 5.8 19 Sudoeste 33 Sudoeste 0 -- -- 73
2018-01-09 12:00:00 5.4 17 Sudoeste 37 Sudoeste 0 -- -- 78
2018-01-09 11:00:00 4.1 23 Sur 39 Sur 0 -- -- 87
2018-01-09 10:00:00 3.7 21 Sur 37 Sudoeste 0 -- -- 84
2018-01-09 09:00:00 3.1 17 Sudoeste 31 Sudoeste 0 -- -- 87
2018-01-09 08:00:00 2.9 19 Sudoeste 35 Sudoeste 0 -- -- 85
2018-01-09 07:00:00 3.1 21 Sudoeste 36 Oeste 0 -- -- 88
2018-01-09 06:00:00 3.2 19 Sudoeste 32 Sudoeste 0 -- -- 88
2018-01-09 05:00:00 3 18 Sudoeste 35 Sudoeste 0 -- -- 88
2018-01-09 04:00:00 2.7 23 Sur 35 Sur 0 -- -- 85
2018-01-09 03:00:00 2.6 17 Sudoeste 33 Sudoeste 0 -- -- 85
2018-01-09 02:00:00 2.9 21 Sudoeste 32 Sudoeste 0 -- -- 88
2018-01-09 01:00:00 2.8 17 Sudoeste 27 Sudoeste 0 -- -- 88
2018-01-09 00:00:00 2.7 14 Oeste 36 Oeste 0 -- -- 88
2018-01-08 23:00:00 2.3 12 Noroeste 35 Norte 0 -- -- 88
2018-01-08 22:00:00 2.2 17 Noroeste 42 Noroeste 0 -- -- 88
2018-01-08 21:00:00 2.1 19 Noroeste 45 Noroeste 0 -- -- 88
2018-01-08 20:00:00 1.6 27 Noroeste 50 Noroeste 0 -- -- 88
2018-01-08 19:00:00 1.7 21 Noroeste 51 Noroeste 0 -- -- 88
2018-01-08 18:00:00 2.3 23 Noroeste 49 Noroeste 0 -- -- 88
2018-01-08 17:00:00 2.6 27 Noroeste 55 Noroeste 0 -- -- 88
2018-01-08 16:00:00 3 34 Noroeste 62 Norte 1.2 -- -- 88
2018-01-08 15:00:00 3.5 39 Noroeste 64 Noroeste 1.2 -- -- 88
2018-01-08 14:00:00 2.4 38 Noroeste 60 Norte 1.5 -- -- 88
2018-01-08 13:00:00 3.3 33 Noroeste 54 Noroeste 1.1 -- -- 88
2018-01-08 12:00:00 3.2 28 Noroeste 40 Norte 0 -- -- 88
2018-01-08 11:00:00 3 31 Norte 44 Norte 0 -- -- 88
2018-01-08 10:00:00 2.8 30 Norte 42 Norte 0.4 -- -- 88
2018-01-08 09:00:00 1.8 19 Norte 34 Norte 2.8 -- -- 86
2018-01-08 08:00:00 2.7 17 Noroeste 30 Norte 0 -- -- 88
2018-01-08 07:00:00 2.7 17 Norte 25 Norte 0 -- -- 85
2018-01-08 06:00:00 2.1 12 Nordeste 18 Nordeste 0 -- -- 72
2018-01-08 05:00:00 2.1 10 Nordeste 23 Norte 0 -- -- 65
2018-01-08 04:00:00 1.9 16 Norte 25 Norte 0 -- -- 68
2018-01-08 03:00:00 2 9 Norte 13 Norte 0 -- -- 68
2018-01-08 02:00:00 1.8 9 Sudeste 19 Sur 0 -- -- 70
2018-01-08 01:00:00 2.3 10 Sur 20 Sudeste 0 -- -- 61
2018-01-08 00:00:00 1.6 15 Sudeste 20 Sudeste 0 -- -- 56
2018-01-07 23:00:00 2.9 5 Noroeste 14 Oeste 0 -- -- 44
2018-01-07 22:00:00 3.1 8 Oeste 15 Sudoeste 0 -- -- 47
2018-01-07 21:00:00 2.3 7 Noroeste 19 Noroeste 0 -- -- 76
2018-01-07 20:00:00 2.1 10 Noroeste 17 Noroeste 0 -- -- 89
2018-01-07 19:00:00 2.3 12 Noroeste 23 Noroeste 0 -- -- 89
2018-01-07 18:00:00 2.3 12 Noroeste 24 Noroeste 0 -- -- 89
2018-01-07 17:00:00 3.2 11 Noroeste 21 Noroeste 0 -- -- 89
2018-01-07 16:00:00 3.8 7 Oeste 23 Oeste 0 -- -- 89
2018-01-07 15:00:00 3.4 12 Oeste 22 Sur 0.9 -- -- 89
2018-01-07 14:00:00 3.6 13 Sur 26 Sudoeste 0.1 -- -- 89
2018-01-07 13:00:00 3 15 Sur 32 Sur 0.3 -- -- 89
2018-01-07 12:00:00 3.1 26 Sur 41 Sur 0 -- -- 89
2018-01-07 11:00:00 2.8 30 Sur 47 Sur 0.3 -- -- 89
2018-01-07 10:00:00 2.4 25 Sur 45 Sur 1.6 -- -- 89
2018-01-07 09:00:00 2.4 28 Sur 47 Sur 3.5 -- -- 89
2018-01-07 08:00:00 3.1 17 Sur 39 Sur 5.2 -- -- 89
2018-01-07 07:00:00 4.1 24 Sur 51 Sur 0.4 -- -- 89
2018-01-07 06:00:00 3.9 33 Sur 58 Sur 0.1 -- -- 89
2018-01-07 05:00:00 3.8 38 Sur 67 Sur 0 -- -- 89
2018-01-07 04:00:00 4.5 36 Sur 70 Sur 0.2 -- -- 89
2018-01-07 03:00:00 4.5 39 Sur 75 Sur 0 -- -- 89
2018-01-07 02:00:00 4.8 44 Sur 83 Sur 0 -- -- 89
2018-01-07 01:00:00 4.2 40 Sur 74 Sur 0 -- -- 89
2018-01-07 00:00:00 6.3 34 Sur 58 Sur 0 -- -- 89
2018-01-06 23:00:00 6.5 25 Sur 48 Sur 0 -- -- 89
2018-01-06 22:00:00 6.7 28 Sur 49 Sur 0 -- -- 89
2018-01-06 21:00:00 6.3 25 Sur 51 Sur 0 -- -- 89
2018-01-06 20:00:00 6.6 31 Sur 62 Sur 0 -- -- 85
2018-01-06 19:00:00 7.4 38 Sur 66 Sur 0 -- -- 59
2018-01-06 18:00:00 7.4 39 Sur 66 Sudoeste 0 -- -- 66
2018-01-06 17:00:00 7.5 41 Sur 62 Sur 0 -- -- 68
2018-01-06 16:00:00 6.9 40 Sur 60 Sur 0 -- -- 80
2018-01-06 15:00:00 6.8 38 Sur 63 Sur 0 -- -- 84
2018-01-06 14:00:00 7.3 38 Sur 64 Sur 0 -- -- 73
2018-01-06 13:00:00 6.7 37 Sur 66 Sur 0 -- -- 80
2018-01-06 12:00:00 7.9 37 Sur 59 Sur 0 -- -- 58
2018-01-06 11:00:00 6.1 38 Sur 51 Sur 0 -- -- 88
2018-01-06 10:00:00 6 39 Sur 51 Sur 0 -- -- 86
2018-01-06 09:00:00 5.8 35 Sur 49 Sur 0 -- -- 90
2018-01-06 08:00:00 5.5 32 Sur 49 Sur 0 -- -- 90
2018-01-06 07:00:00 5.6 36 Sur 50 Sur 0.1 -- -- 90
2018-01-06 06:00:00 5.5 33 Sur 46 Sur 0 -- -- 90
2018-01-06 05:00:00 5.4 28 Sur 38 Sur 0 -- -- 90
2018-01-06 04:00:00 4.8 31 Sur 39 Sur 0 -- -- 90
2018-01-06 03:00:00 5.2 31 Sur 43 Sur 0 -- -- 90
2018-01-06 02:00:00 5.7 28 Sur 45 Sur 0 -- -- 90
2018-01-06 01:00:00 5.2 21 Sur 31 Sudoeste 0 -- -- 89
2018-01-06 00:00:00 5.3 21 Sur 29 Sur 0 -- -- 84
2018-01-05 23:00:00 5.3 13 Sur 31 Sur 0 -- -- 82
2018-01-05 22:00:00 5.5 16 Sudoeste 38 Oeste 0 -- -- 79
2018-01-05 21:00:00 6.1 18 Sudoeste 46 Sudoeste 0 -- -- 70
2018-01-05 20:00:00 6.7 19 Oeste 41 Oeste 0 -- -- 60
2018-01-05 19:00:00 6.8 17 Oeste 47 Oeste 0 -- -- 59
2018-01-05 18:00:00 6.8 18 Oeste 40 Oeste 0 -- -- 58
2018-01-05 17:00:00 7.1 13 Noroeste 34 Oeste 0 -- -- 57
2018-01-05 16:00:00 7.8 14 Oeste 36 Oeste 0 -- -- 52
2018-01-05 15:00:00 9.8 14 Sudoeste 34 Sudoeste 0 -- -- 52
2018-01-05 14:00:00 9.3 17 Oeste 47 Oeste 0 -- -- 53
2018-01-05 13:00:00 8.8 21 Oeste 62 Oeste 0 -- -- 53
2018-01-05 12:00:00 10.1 20 Oeste 49 Oeste 0 -- -- 53
2018-01-05 11:00:00 10.4 3 Noroeste 27 Sudoeste 0 -- -- 56
2018-01-05 10:00:00 9.6 12 Sur 24 Sur 0 -- -- 53
2018-01-05 09:00:00 8.1 15 Sur 20 Sur 0 -- -- 56
2018-01-05 08:00:00 8.3 6 Sur 13 Sudoeste 0 -- -- 52
2018-01-05 07:00:00 8.2 8 Norte 30 Norte 0 -- -- 55
2018-01-05 06:00:00 8.2 25 Norte 38 Noroeste 0 -- -- 55
2018-01-05 05:00:00 8.5 35 Noroeste 49 Noroeste 0 -- -- 55
2018-01-05 04:00:00 8.1 36 Noroeste 46 Norte 0 -- -- 57
2018-01-05 03:00:00 8.7 30 Noroeste 39 Noroeste 0 -- -- 55
2018-01-05 02:00:00 8.7 14 Norte 41 Noroeste 0 -- -- 59
2018-01-05 01:00:00 6.8 33 Noroeste 50 Norte 0 -- -- 73
2018-01-05 00:00:00 9.3 31 Noroeste 39 Noroeste 0 -- -- 57
2018-01-04 23:00:00 10 28 Noroeste 40 Noroeste 0 -- -- 53
2018-01-04 22:00:00 10.2 33 Noroeste 45 Norte 0 -- -- 53
2018-01-04 21:00:00 9.3 31 Noroeste 58 Norte 0 -- -- 57
2018-01-04 20:00:00 9.8 32 Noroeste 54 Norte 0 -- -- 55
2018-01-04 19:00:00 9.6 36 Norte 55 Noroeste 0 -- -- 60
2018-01-04 18:00:00 9.3 35 Noroeste 45 Norte 0 -- -- 61
2018-01-04 17:00:00 10 33 Noroeste 52 Norte 0 -- -- 59
2018-01-04 16:00:00 9.5 33 Noroeste 45 Noroeste 0 -- -- 70
2018-01-04 15:00:00 10.6 29 Noroeste 54 Noroeste 0 -- -- 65
2018-01-04 14:00:00 10.5 37 Noroeste 53 Norte 0 -- -- 65
2018-01-04 13:00:00 10.7 35 Noroeste 67 Norte 0 -- -- 64
2018-01-04 12:00:00 12.4 48 Noroeste 69 Norte 0 -- -- 56
2018-01-04 11:00:00 11.9 45 Noroeste 69 Noroeste 0 -- -- 57
2018-01-04 10:00:00 11.6 46 Noroeste 75 Noroeste 0 -- -- 56
2018-01-04 09:00:00 11.1 49 Noroeste 80 Noroeste 0 -- -- 56
2018-01-04 08:00:00 10.4 52 Noroeste 83 Noroeste 0 -- -- 58
2018-01-04 07:00:00 10.4 49 Noroeste 75 Noroeste 0 -- -- 60
2018-01-04 06:00:00 10.8 46 Noroeste 78 Noroeste 0 -- -- 57
2018-01-04 05:00:00 10.8 46 Noroeste 83 Noroeste 0 -- -- 57
2018-01-04 04:00:00 11.2 47 Noroeste 76 Noroeste 0 -- -- 55
2018-01-04 03:00:00 11.1 41 Noroeste 75 Noroeste 0 -- -- 56
2018-01-04 02:00:00 11 39 Noroeste 66 Noroeste 0 -- -- 58
2018-01-04 01:00:00 11 37 Noroeste 71 Noroeste 0 -- -- 58
2018-01-04 00:00:00 10.8 36 Noroeste 64 Noroeste 0 -- -- 60
2018-01-03 23:00:00 11.3 38 Noroeste 66 Noroeste 0 -- -- 58
2018-01-03 22:00:00 11.7 40 Noroeste 64 Noroeste 0 -- -- 55
2018-01-03 21:00:00 11.7 41 Noroeste 68 Noroeste 0 -- -- 54
2018-01-03 20:00:00 11.7 40 Noroeste 73 Noroeste 0 -- -- 54
2018-01-03 19:00:00 11 38 Noroeste 77 Noroeste 0 -- -- 56
2018-01-03 18:00:00 12 51 Noroeste 86 Noroeste 0 -- -- 50
2018-01-03 17:00:00 12.3 46 Noroeste 71 Noroeste 0 -- -- 51
2018-01-03 16:00:00 12.4 42 Noroeste 76 Noroeste 0 -- -- 51
2018-01-03 15:00:00 12.6 50 Noroeste 80 Noroeste 0 -- -- 49
2018-01-03 14:00:00 13 44 Noroeste 77 Noroeste 0 -- -- 50
2018-01-03 13:00:00 11.8 46 Noroeste 74 Noroeste 0 -- -- 53
2018-01-03 12:00:00 10.9 46 Noroeste 71 Norte 0 -- -- 57
2018-01-03 11:00:00 10.7 40 Noroeste 68 Noroeste 0 -- -- 58
2018-01-03 10:00:00 10.2 47 Noroeste 71 Noroeste 0 -- -- 60
2018-01-03 09:00:00 9.6 49 Noroeste 77 Noroeste 0 -- -- 63
2018-01-03 08:00:00 8.9 47 Noroeste 72 Noroeste 0 -- -- 65
2018-01-03 07:00:00 9.3 45 Noroeste 71 Noroeste 0 -- -- 62
2018-01-03 06:00:00 9.2 50 Noroeste 74 Noroeste 0 -- -- 65
2018-01-03 05:00:00 8.8 50 Noroeste 72 Noroeste 0 -- -- 67
2018-01-03 04:00:00 8.9 51 Noroeste 75 Noroeste 0 -- -- 66
2018-01-03 03:00:00 9 54 Noroeste 76 Norte 0 -- -- 66
2018-01-03 02:00:00 8.3 51 Noroeste 71 Norte 0 -- -- 71
2018-01-03 01:00:00 8.8 44 Noroeste 71 Noroeste 0 -- -- 66
2018-01-03 00:00:00 9.5 44 Noroeste 67 Noroeste 0 -- -- 62
2018-01-02 23:00:00 8.8 38 Noroeste 56 Noroeste 0 -- -- 60
2018-01-02 22:00:00 9 36 Noroeste 51 Noroeste 0 -- -- 55
2018-01-02 21:00:00 8.5 28 Noroeste 48 Noroeste 0 -- -- 53
2018-01-02 20:00:00 8.5 37 Noroeste 51 Noroeste 0 -- -- 51
2018-01-02 19:00:00 8.2 35 Noroeste 53 Norte 0 -- -- 50
2018-01-02 18:00:00 8.3 40 Noroeste 64 Noroeste 0 -- -- 51
2018-01-02 17:00:00 9 46 Noroeste 67 Norte 0 -- -- 52
2018-01-02 16:00:00 9.1 30 Noroeste 74 Norte 0 -- -- 50
2018-01-02 15:00:00 9.1 39 Noroeste 56 Norte 0 -- -- 51
2018-01-02 14:00:00 8.7 32 Noroeste 58 Noroeste 0 -- -- 54
2018-01-02 13:00:00 8.9 28 Noroeste 58 Noroeste 0 -- -- 59
2018-01-02 12:00:00 7.7 36 Noroeste 56 Noroeste 0 -- -- 69
2018-01-02 11:00:00 7.2 24 Noroeste 51 Norte 0 -- -- 74
2018-01-02 10:00:00 6.8 28 Noroeste 41 Noroeste 0 -- -- 80
2018-01-02 09:00:00 6.3 28 Noroeste 46 Noroeste 0 -- -- 85
2018-01-02 08:00:00 6.2 26 Noroeste 51 Noroeste 0 -- -- 77
2018-01-02 07:00:00 5.7 38 Noroeste 54 Noroeste 0 -- -- 86
2018-01-02 06:00:00 6.1 34 Noroeste 86 Noroeste 0 -- -- 77
2018-01-02 05:00:00 6.6 56 Noroeste 95 Norte 0 -- -- 70
2018-01-02 04:00:00 7.1 66 Noroeste 103 Noroeste 0 -- -- 65
2018-01-02 03:00:00 7.1 72 Noroeste 113 Noroeste 0 -- -- 64
2018-01-02 02:00:00 6.9 61 Noroeste 121 Norte 0 -- -- 64
2018-01-02 01:00:00 7.4 69 Noroeste 113 Norte 0 -- -- 55
2018-01-02 00:00:00 7.6 69 Noroeste 111 Noroeste 0 -- -- 52
2018-01-01 23:00:00 7.5 57 Noroeste 90 Noroeste 0 -- -- 50
2018-01-01 22:00:00 7.1 48 Noroeste 82 Noroeste 0 -- -- 51
2018-01-01 21:00:00 6.3 43 Noroeste 95 Noroeste 0 -- -- 51
2018-01-01 20:00:00 6.1 33 Noroeste 81 Noroeste 0 -- -- 50
2018-01-01 19:00:00 6.5 33 Oeste 93 Noroeste 0 -- -- 37
2018-01-01 18:00:00 6.3 42 Noroeste 105 Noroeste 0 -- -- 41
2018-01-01 17:00:00 7.2 38 Oeste 83 Noroeste 0 -- -- 23
2018-01-01 16:00:00 8.2 40 Oeste 65 Oeste 0 -- -- 21
2018-01-01 15:00:00 7.4 29 Oeste 51 Oeste 0 -- -- 23
2018-01-01 14:00:00 7.7 13 Noroeste 48 Noroeste 0 -- -- 41
2018-01-01 13:00:00 6.2 35 Noroeste 66 Noroeste 0 -- -- 51
2018-01-01 12:00:00 6 42 Noroeste 71 Norte 0 -- -- 53
2018-01-01 11:00:00 5.4 48 Noroeste 83 Noroeste 0 -- -- 53
2018-01-01 10:00:00 4.8 43 Noroeste 70 Noroeste 0 -- -- 58
2018-01-01 09:00:00 4.4 42 Noroeste 75 Noroeste 0 -- -- 64
2018-01-01 08:00:00 3.3 51 Noroeste 93 Noroeste 0 -- -- 68
2018-01-01 07:00:00 3.6 59 Noroeste 99 Noroeste 0 -- -- 68
2018-01-01 06:00:00 3.5 64 Noroeste 117 Noroeste 0 -- -- 69
2018-01-01 05:00:00 3.9 65 Noroeste 119 Norte 0 -- -- 63
2018-01-01 04:00:00 4.1 58 Noroeste 109 Norte 0 -- -- 68
2018-01-01 03:00:00 4.2 62 Noroeste 103 Noroeste 0 -- -- 71
2018-01-01 02:00:00 4.9 63 Noroeste 100 Noroeste 0 -- -- 65
2018-01-01 01:00:00 6.5 59 Noroeste 92 Norte 0 -- -- 84
2018-01-01 00:00:00 7.1 51 Noroeste 81 Noroeste 0 -- -- 65
2017-12-31 23:00:00 7.3 48 Noroeste 77 Noroeste 0 -- -- 56
2017-12-31 22:00:00 6.6 32 Noroeste 90 Oeste 0 -- -- 81
2017-12-31 21:00:00 6.9 33 Oeste 104 Oeste 0 -- -- 70
2017-12-31 20:00:00 7.9 40 Oeste 98 Oeste 0 -- -- 61
2017-12-31 19:00:00 9.2 41 Oeste 89 Oeste 0 -- -- 51
2017-12-31 18:00:00 9.9 27 Oeste 58 Oeste 0 -- -- 35
2017-12-31 17:00:00 11.8 35 Oeste 58 Oeste 0 -- -- 28
2017-12-31 16:00:00 12.5 31 Oeste 54 Sudoeste 0 -- -- 28
2017-12-31 15:00:00 12 35 Sudoeste 50 Sudoeste 0 -- -- 49
2017-12-31 14:00:00 12.6 36 Sudoeste 57 Sudoeste 0 -- -- 48
2017-12-31 13:00:00 12.7 32 Oeste 50 Oeste 0 -- -- 40
2017-12-31 12:00:00 13.2 39 Sudoeste 53 Sudoeste 0 -- -- 34
2017-12-31 11:00:00 10.2 32 Sudoeste 48 Sudoeste 0 -- -- 64
2017-12-31 10:00:00 9.2 32 Sudoeste 45 Sudoeste 0 -- -- 73
2017-12-31 09:00:00 8.7 26 Sur 37 Sudoeste 0 -- -- 67
2017-12-31 08:00:00 8.8 24 Sur 36 Sudoeste 0 -- -- 65
2017-12-31 07:00:00 8.7 26 Sur 33 Sur 0 -- -- 64
2017-12-31 06:00:00 9 22 Sudoeste 32 Sudoeste 0 -- -- 60
2017-12-31 05:00:00 8.9 19 Sur 27 Sur 0 -- -- 61
2017-12-31 04:00:00 9.1 19 Sur 25 Sur 0 -- -- 56
2017-12-31 03:00:00 10 14 Sudoeste 19 Sudoeste 0 -- -- 48
2017-12-31 02:00:00 9.1 5 Oeste 15 Noroeste 0 -- -- 53
2017-12-31 01:00:00 8.7 17 Noroeste 31 Noroeste 0 -- -- 55